Time;durP1;ratioP1;P1;durP2;ratioP2;P2;SDS_P1;SDS_P2;PMS_P1;PMS_P2;Temp;Humidity;BMP_temperature;BMP_pressure;BME280_temperature;BME280_humidity;BME280_pressure;Samples;Min_cycle;Max_cycle;Signal;HPM_P1;HPM_P2
2022/07/11 00:02:55;;;;;;;1.15;0.75;;;;;;;15.68;61.51;100028.00;2103191;93;25698;-78
2022/07/11 00:06:19;;;;;;;1.32;0.93;;;;;;;15.63;61.61;100033.25;2103585;94;25809;-78
2022/07/11 00:10:01;;;;;;;5.47;1.25;;;;;;;15.67;61.56;100040.27;2104017;94;25762;-78
2022/07/11 00:17:04;;;;;;;3.62;0.90;;;;;;;15.72;61.44;100029.73;1977397;99;25822;-78
2022/07/11 00:20:37;;;;;;;1.75;1.00;;;;;;;15.62;61.39;100026.22;1953632;98;25783;-78
2022/07/11 00:24:00;;;;;;;1.02;0.90;;;;;;;15.58;61.37;100027.11;1904395;102;25878;-78
2022/07/11 00:31:28;;;;;;;3.27;0.60;;;;;;;15.49;61.46;100024.09;1849414;105;26088;-77
2022/07/11 00:35:15;;;;;;;1.77;0.68;;;;;;;15.46;61.48;100023.22;1848309;106;25802;-78
2022/07/11 00:42:20;;;;;;;0.93;0.80;;;;;;;15.35;61.60;100027.15;1843721;106;25407;-76
2022/07/11 00:45:45;;;;;;;1.40;0.70;;;;;;;15.32;61.65;100021.48;1859026;104;26033;-76
2022/07/11 00:49:26;;;;;;;3.70;0.60;;;;;;;15.27;61.72;100016.66;1877231;104;25902;-76
2022/07/11 00:53:06;;;;;;;2.15;1.00;;;;;;;15.31;61.68;100009.21;1875399;99;25819;-77
2022/07/11 00:56:34;;;;;;;1.82;0.50;;;;;;;15.29;61.69;100009.67;1885817;104;25779;-76
2022/07/11 01:03:58;;;;;;;;;;;;;;;;;;;;;
2022/07/11 01:07:44;;;;;;;0.93;0.62;;;;;;;15.36;61.49;100017.10;1831360;106;26022;-76
2022/07/11 01:10:49;;;;;;;4.90;0.75;;;;;;;15.30;61.43;100019.30;1845366;105;25783;-76
2022/07/11 01:14:19;;;;;;;0.95;0.55;;;;;;;15.23;61.41;100018.00;1888564;101;25872;-76
2022/07/11 01:17:48;;;;;;;5.35;1.00;;;;;;;15.20;61.52;100014.06;1918612;103;25820;-77
2022/07/11 01:21:30;;;;;;;1.37;0.80;;;;;;;15.11;61.51;100014.92;1914312;100;26074;-77
2022/07/11 01:24:56;;;;;;;1.95;0.75;;;;;;;15.05;61.62;100023.70;1893960;103;25943;-77
2022/07/11 01:28:31;;;;;;;2.45;0.57;;;;;;;15.05;61.74;100013.61;1911630;102;25900;-77
2022/07/11 01:32:16;;;;;;;3.55;0.60;;;;;;;14.97;61.78;100012.31;1910993;102;25794;-77
2022/07/11 01:35:39;;;;;;;3.50;0.60;;;;;;;14.95;61.93;100007.52;1908711;102;25813;-76
2022/07/11 01:39:02;;;;;;;10.60;1.00;;;;;;;14.97;61.82;100003.13;1942722;99;29636;-76
2022/07/11 01:42:55;;;;;;;4.70;0.65;;;;;;;14.92;61.92;100007.92;1974459;100;25743;-77
2022/07/11 01:46:17;;;;;;;1.85;0.60;;;;;;;14.83;61.96;99999.63;1974455;98;25711;-76
2022/07/11 01:49:55;;;;;;;3.17;0.60;;;;;;;14.73;62.15;99994.81;1974355;100;25700;-76
2022/07/11 01:53:19;;;;;;;8.60;1.42;;;;;;;14.58;62.21;99993.06;2192471;85;25599;-76
2022/07/11 01:56:51;;;;;;;1.72;0.55;;;;;;;14.43;62.57;99990.81;2324972;85;25202;-76
2022/07/11 02:00:20;;;;;;;6.58;0.70;;;;;;;14.45;62.86;99994.33;2295744;85;25839;-76
2022/07/11 02:03:51;;;;;;;1.85;0.80;;;;;;;14.44;62.89;99991.25;2283386;86;25656;-77
2022/07/11 02:11:11;;;;;;;2.35;0.70;;;;;;;14.51;63.05;99993.03;2325509;83;25651;-76
2022/07/11 02:14:41;;;;;;;3.58;0.70;;;;;;;14.56;63.00;99983.44;2283265;85;25659;-77
2022/07/11 02:18:14;;;;;;;4.12;1.00;;;;;;;14.49;63.09;99987.77;2326098;84;25615;-77
2022/07/11 02:22:05;;;;;;;5.35;0.90;;;;;;;14.49;63.26;100000.02;2325755;84;25619;-76
2022/07/11 02:25:31;;;;;;;1.45;0.85;;;;;;;14.38;63.32;99993.00;2270621;86;25627;-77
2022/07/11 02:29:12;;;;;;;;;;;;;;;;;;;;;
2022/07/11 02:32:30;;;;;;;2.02;1.20;;;;;;;14.36;63.62;100002.60;2268053;87;25686;-76
2022/07/11 02:35:51;;;;;;;2.10;1.05;;;;;;;14.35;63.70;99996.06;2326258;85;25143;-76
2022/07/11 02:39:31;;;;;;;3.98;0.95;;;;;;;14.36;63.75;100001.30;2270229;86;31755;-77
2022/07/11 02:43:05;;;;;;;1.20;0.68;;;;;;;14.37;63.89;99998.23;2323543;85;25612;-77
2022/07/11 02:46:43;;;;;;;1.40;0.72;;;;;;;14.34;63.88;100003.05;2249767;87;25693;-78
2022/07/11 02:50:21;;;;;;;6.00;0.80;;;;;;;14.36;64.12;100005.22;2295956;84;25718;-77
2022/07/11 02:54:01;;;;;;;5.20;0.65;;;;;;;14.43;64.02;100005.24;2246638;87;25685;-77
2022/07/11 02:57:34;;;;;;;4.80;0.90;;;;;;;14.51;64.05;100002.22;2325747;84;25166;-78
2022/07/11 03:01:00;;;;;;;9.15;1.67;;;;;;;14.53;64.01;100007.04;2267351;87;25637;-76
2022/07/11 03:04:39;;;;;;;2.35;0.95;;;;;;;14.55;63.92;100011.42;2326069;84;25829;-76
2022/07/11 03:08:24;;;;;;;9.23;1.00;;;;;;;14.67;63.90;100014.92;2325503;84;25596;-76
2022/07/11 03:11:56;;;;;;;2.30;0.95;;;;;;;14.67;63.86;100013.61;2248949;87;25885;-76
2022/07/11 03:15:32;;;;;;;5.10;1.45;;;;;;;14.72;63.76;100008.81;2326140;85;25194;-76
2022/07/11 03:23:01;;;;;;;14.53;2.22;;;;;;;14.63;63.97;100014.92;2197015;88;25674;-77
2022/07/11 03:26:30;;;;;;;3.45;0.82;;;;;;;14.66;63.98;100013.19;2196766;90;25749;-77
2022/07/11 03:30:14;;;;;;;8.55;0.98;;;;;;;14.76;63.99;100012.31;2196705;90;30817;-78
2022/07/11 03:33:42;;;;;;;10.82;1.42;;;;;;;14.83;63.89;100011.44;2152262;90;25769;-76
2022/07/11 03:37:06;;;;;;;3.10;0.90;;;;;;;14.85;63.86;100021.52;2155198;91;25692;-78
2022/07/11 03:40:29;;;;;;;6.80;1.42;;;;;;;14.88;63.80;100025.42;2152017;90;25741;-78
2022/07/11 03:44:04;;;;;;;8.38;1.07;;;;;;;14.92;63.80;100019.33;2118088;91;25742;-76
2022/07/11 03:47:32;;;;;;;7.55;1.35;;;;;;;14.97;63.72;100020.63;2150042;91;25991;-77
2022/07/11 03:51:14;;;;;;;7.28;1.30;;;;;;;15.08;63.71;100019.73;2098173;94;25244;-77
2022/07/11 03:54:47;;;;;;;5.65;0.70;;;;;;;15.18;63.52;100017.11;2098454;94;25827;-77
2022/07/11 03:58:12;;;;;;;7.00;1.87;;;;;;;15.22;63.39;100014.91;2097570;94;25679;-78
2022/07/11 04:01:44;;;;;;;5.40;0.90;;;;;;;15.26;63.32;100013.61;2098506;94;25772;-77
2022/07/11 04:09:10;;;;;;;5.62;1.00;;;;;;;15.47;63.29;100014.01;2448608;80;30912;-77
2022/07/11 04:12:31;;;;;;;8.80;1.60;;;;;;;15.49;63.33;100016.20;2292730;85;25765;-78
2022/07/11 04:16:00;;;;;;;6.42;0.98;;;;;;;15.65;63.25;100017.02;2264113;87;30252;-77
2022/07/11 04:19:50;;;;;;;6.47;1.20;;;;;;;15.76;63.09;100005.19;2264537;85;25746;-78
2022/07/11 04:23:21;;;;;;;5.50;1.37;;;;;;;15.90;63.08;100002.09;2264954;86;25808;-77
2022/07/11 04:27:17;;;;;;;7.65;0.95;;;;;;;15.96;62.79;99995.49;2243465;87;25476;-78
2022/07/11 04:31:17;;;;;;;;;;;;;;;;;;;;;
2022/07/11 04:35:00;;;;;;;;;;;;;;;;;;;;;
2022/07/11 04:38:23;;;;;;;4.65;1.00;;;;;;;15.65;63.73;99987.24;2217516;87;25833;-76
2022/07/11 04:46:10;;;;;;;5.65;1.17;;;;;;;15.65;64.10;99985.92;2198115;87;25747;-77
2022/07/11 04:49:46;;;;;;;6.62;1.45;;;;;;;15.58;64.33;99991.20;2220914;87;25704;-76
2022/07/11 04:57:46;;;;;;;11.63;1.75;;;;;;;15.51;64.82;100003.05;2105002;94;25797;-76
2022/07/11 05:01:02;;;;;;;7.17;1.57;;;;;;;15.58;64.93;100004.78;2073711;94;25962;-77
2022/07/11 05:04:37;;;;;;;3.05;0.90;;;;;;;15.65;64.85;100005.63;2023393;96;25811;-77
2022/07/11 05:08:20;;;;;;;4.17;1.40;;;;;;;15.75;65.04;100008.70;2035815;93;25760;-77
2022/07/11 05:11:46;;;;;;;2.70;1.00;;;;;;;15.86;65.00;100018.72;2111560;92;25816;-77
2022/07/11 05:15:44;;;;;;;2.08;1.10;;;;;;;16.03;64.88;100017.34;2118062;92;25774;-77
2022/07/11 05:19:04;;;;;;;6.08;1.85;;;;;;;16.07;64.72;100024.81;2116558;92;25982;-77
2022/07/11 05:23:03;;;;;;;2.20;1.07;;;;;;;16.01;64.91;100025.25;2117436;91;25781;-78
2022/07/11 05:26:44;;;;;;;5.20;1.12;;;;;;;16.04;64.97;100033.13;2067123;94;25916;-76
2022/07/11 05:30:22;;;;;;;7.03;1.25;;;;;;;16.14;64.89;100035.28;2086192;93;25791;-77
2022/07/11 05:34:20;;;;;;;5.12;1.50;;;;;;;16.21;64.92;100034.81;2094676;92;25687;-77
2022/07/11 05:37:56;;;;;;;4.60;1.87;;;;;;;16.25;64.62;100038.72;2123346;93;25802;-78
2022/07/11 05:41:45;;;;;;;3.75;1.00;;;;;;;16.17;64.61;100038.34;2048474;95;25870;-78
2022/07/11 05:45:44;;;;;;;2.70;1.30;;;;;;;16.21;64.62;100042.25;2089708;94;25675;-78
2022/07/11 05:49:19;;;;;;;;;;;;;;;;;;;;;
2022/07/11 05:52:50;;;;;;;;;;;;;;;;;;;;;
2022/07/11 05:56:12;;;;;;;2.58;1.30;;;;;;;16.39;64.53;100038.65;2068890;95;25856;-78
2022/07/11 05:59:41;;;;;;;3.42;1.00;;;;;;;16.56;64.22;100041.17;2071364;95;25793;-78
2022/07/11 06:03:14;;;;;;;3.65;0.98;;;;;;;16.69;63.89;100043.30;2071032;95;25912;-77
2022/07/11 06:06:41;;;;;;;2.80;1.00;;;;;;;16.77;63.74;100045.45;2072636;94;25942;-78
2022/07/11 06:10:02;;;;;;;4.53;1.00;;;;;;;16.88;63.30;100040.13;2060720;94;25790;-78
2022/07/11 06:13:33;;;;;;;5.62;1.32;;;;;;;16.93;63.23;100048.86;2061262;94;25703;-78
2022/07/11 06:17:01;;;;;;;2.55;0.80;;;;;;;17.03;63.09;100049.22;2078073;93;25745;-77
2022/07/11 06:20:45;;;;;;;6.42;1.00;;;;;;;17.04;62.87;100047.45;2054332;95;25723;-78
2022/07/11 06:24:31;;;;;;;7.45;1.00;;;;;;;17.02;62.82;100050.11;2058755;92;25953;-78
2022/07/11 06:27:57;;;;;;;6.10;0.78;;;;;;;16.93;62.87;100045.77;2027946;95;25664;-77
2022/07/11 06:35:34;;;;;;;3.37;1.12;;;;;;;16.88;62.73;100046.27;1970308;99;25779;-77
2022/07/11 06:39:07;;;;;;;4.75;1.02;;;;;;;16.95;62.64;100048.41;1955789;100;25805;-77
2022/07/11 06:42:43;;;;;;;4.47;1.00;;;;;;;16.86;62.71;100050.66;1974357;99;25859;-77
2022/07/11 06:46:30;;;;;;;;;;;;;;;;;;;;;
2022/07/11 06:49:56;;;;;;;3.83;0.90;;;;;;;16.81;62.87;100039.30;1890217;103;25836;-78
2022/07/11 06:53:42;;;;;;;4.17;2.20;;;;;;;16.83;62.84;100040.15;1920615;99;25871;-78
2022/07/11 06:57:21;;;;;;;9.53;1.65;;;;;;;16.84;62.96;100048.91;1927577;101;25849;-78
2022/07/11 07:00:42;;;;;;;;;;;;;;;16.93;62.86;100047.09;1897332;102;25978;-78
2022/07/11 07:04:21;;;;;;;4.72;1.00;;;;;;;17.02;62.64;100043.97;1874470;104;25939;-78
2022/07/11 07:08:02;;;;;;;7.45;1.25;;;;;;;16.99;62.68;100045.73;1852795;105;25827;-78
2022/07/11 07:11:28;;;;;;;8.10;1.10;;;;;;;16.96;62.75;100048.84;1860412;106;25875;-78
2022/07/11 07:14:56;;;;;;;2.85;1.00;;;;;;;16.99;62.80;100052.31;1860731;106;25607;-78
2022/07/11 07:18:45;;;;;;;6.12;1.22;;;;;;;17.08;62.75;100044.80;1859440;105;25852;-78
2022/07/11 07:22:17;;;;;;;2.20;1.20;;;;;;;17.34;62.65;100047.63;1867339;104;25845;-77
2022/07/11 07:25:53;;;;;;;5.28;1.65;;;;;;;17.89;62.30;100049.29;1910131;100;25642;-79
2022/07/11 07:29:47;;;;;;;6.60;3.35;;;;;;;18.53;61.80;100053.31;1958579;98;25890;-78
2022/07/11 07:33:31;;;;;;;5.55;2.50;;;;;;;19.25;60.36;100053.08;2025970;96;25806;-77
2022/07/11 07:37:03;;;;;;;6.10;2.35;;;;;;;19.48;59.50;100049.17;2070032;94;25724;-77
2022/07/11 07:40:42;;;;;;;12.07;2.47;;;;;;;19.46;58.86;100044.34;2068930;94;25722;-79
2022/07/11 07:44:18;;;;;;;6.22;2.67;;;;;;;19.37;58.51;100045.37;1967423;98;25819;-78
2022/07/11 07:47:49;;;;;;;2.55;1.52;;;;;;;19.62;58.56;100045.81;1985945;98;25893;-78
2022/07/11 07:51:33;;;;;;;3.20;1.95;;;;;;;20.11;58.61;100046.63;1986775;98;25813;-78
2022/07/11 07:54:53;;;;;;;4.03;1.80;;;;;;;20.47;58.00;100044.52;1969347;98;26015;-77
2022/07/11 07:58:57;;;;;;;2.85;1.60;;;;;;;20.70;57.11;100037.41;2003094;98;25932;-77
2022/07/11 08:02:24;;;;;;;4.83;1.52;;;;;;;20.73;56.46;100036.48;2029462;95;26503;-78
2022/07/11 08:05:41;;;;;;;4.25;1.10;;;;;;;20.80;55.77;100040.72;2105011;92;26321;-78
2022/07/11 08:09:23;;;;;;;2.67;1.30;;;;;;;21.17;55.41;100036.70;2120649;91;25784;-76
2022/07/11 08:12:50;;;;;;;5.70;1.30;;;;;;;22.01;54.11;100040.69;2091517;93;25748;-76
2022/07/11 08:16:33;;;;;;;7.62;1.25;;;;;;;22.72;52.85;100028.36;2094831;93;25994;-77
2022/07/11 08:20:12;;;;;;;1.77;0.80;;;;;;;23.24;51.30;100029.31;2146929;91;25768;-77
2022/07/11 08:23:54;;;;;;;3.80;1.05;;;;;;;23.60;49.74;100038.74;2154578;91;25728;-77
2022/07/11 08:27:38;;;;;;;6.28;0.70;;;;;;;23.88;48.45;100043.50;2089215;93;25791;-77
2022/07/11 08:31:23;;;;;;;1.10;0.85;;;;;;;24.05;47.37;100049.53;2104740;93;25849;-78
2022/07/11 08:35:03;;;;;;;2.52;0.90;;;;;;;24.36;46.50;100052.37;2091865;92;25844;-77
2022/07/11 08:38:32;;;;;;;1.35;0.50;;;;;;;24.67;45.88;100046.73;2117170;93;25851;-77
2022/07/11 08:42:39;;;;;;;;;;;;;;;;;;;;;
2022/07/11 08:50:34;;;;;;;0.80;0.53;;;;;;;24.88;44.07;100047.69;2122199;91;25761;-77
2022/07/11 08:53:58;;;;;;;1.37;0.50;;;;;;;24.88;43.24;100045.88;2062798;95;25833;-76
2022/07/11 08:57:39;;;;;;;2.65;0.60;;;;;;;24.65;43.04;100053.47;2032657;94;25833;-77
2022/07/11 09:01:31;;;;;;;1.85;0.60;;;;;;;24.79;42.81;100050.25;2057135;94;25804;-78
2022/07/11 09:05:08;;;;;;;;;;;;;;;;;;;;;
2022/07/11 09:08:52;;;;;;;4.03;0.50;;;;;;;24.68;42.13;100055.16;2052266;95;25814;-77
2022/07/11 09:12:27;;;;;;;0.90;0.33;;;;;;;25.15;41.97;100048.38;2050291;93;25772;-77
2022/07/11 09:16:12;;;;;;;1.32;0.37;;;;;;;25.50;40.97;100052.67;2057787;96;25770;-77
2022/07/11 09:28:21;;;;;;;0.62;0.33;;;;;;;26.10;39.81;100057.59;2046025;96;25822;-77
2022/07/11 09:31:51;;;;;;;1.37;0.30;;;;;;;26.74;38.90;100054.59;2095286;92;25360;-76
2022/07/11 09:35:45;;;;;;;1.02;0.30;;;;;;;26.84;38.11;100058.55;2132079;92;25793;-77
2022/07/11 09:39:34;;;;;;;0.15;0.10;;;;;;;26.94;37.66;100061.64;2187077;90;25891;-77
2022/07/11 09:43:11;;;;;;;1.65;0.20;;;;;;;27.33;37.04;100056.59;2148941;90;25676;-76
2022/07/11 09:46:55;;;;;;;3.50;0.30;;;;;;;27.71;36.43;100049.28;2101607;92;25770;-77
2022/07/11 09:50:44;;;;;;;0.82;0.20;;;;;;;28.05;35.75;100048.85;2067347;95;25921;-75
2022/07/11 09:54:16;;;;;;;2.92;0.20;;;;;;;28.45;35.24;100053.37;2002073;96;25842;-77
2022/07/11 10:05:45;;;;;;;;;;;;;;;;;;;;;
2022/07/11 10:09:05;;;;;;;1.17;0.10;;;;;;;29.50;32.65;100048.22;1808742;108;26092;-76
2022/07/11 10:12:29;;;;;;;0.10;0.10;;;;;;;29.67;31.90;100037.83;1810256;108;25940;-75
2022/07/11 10:20:28;;;;;;;0.50;0.20;;;;;;;29.95;31.58;100043.23;1784951;109;25925;-75
2022/07/11 10:24:54;;;;;;;1.55;0.20;;;;;;;29.86;31.42;100042.45;1788284;109;25971;-75
2022/07/11 10:32:38;;;;;;;2.20;0.30;;;;;;;28.79;31.29;100047.44;1839288;107;25896;-75
2022/07/11 10:36:35;;;;;;;0.60;0.30;;;;;;;28.48;31.82;100040.69;1839895;107;25908;-76
2022/07/11 10:44:04;;;;;;;0.80;0.30;;;;;;;28.65;33.65;100049.56;1804581;109;25799;-76
2022/07/11 10:47:45;;;;;;;0.68;0.33;;;;;;;28.57;34.11;100055.85;1842162;105;25928;-76
2022/07/11 10:51:47;;;;;;;4.28;0.40;;;;;;;28.54;34.36;100061.39;1796460;106;25870;-77
2022/07/11 10:59:33;;;;;;;0.20;0.20;;;;;;;27.89;34.63;100059.52;1752137;110;25862;-76
2022/07/11 11:03:20;;;;;;;0.82;0.20;;;;;;;27.50;34.78;100058.41;1815526;107;25987;-76
2022/07/11 11:07:33;;;;;;;0.50;0.20;;;;;;;27.03;35.53;100053.17;1877894;99;25947;-76
2022/07/11 11:11:07;;;;;;;0.20;0.20;;;;;;;26.65;35.74;100059.52;1862640;104;26139;-77
2022/07/11 11:14:47;;;;;;;1.20;0.35;;;;;;;26.47;36.55;100051.88;1886161;103;25371;-77
2022/07/11 11:18:36;;;;;;;4.00;0.30;;;;;;;26.68;37.33;100056.70;1877501;103;25988;-76
2022/07/11 11:22:11;;;;;;;0.37;0.20;;;;;;;27.17;37.74;100060.55;1859170;104;26073;-77
2022/07/11 11:25:47;;;;;;;0.23;0.20;;;;;;;27.43;37.36;100060.53;1838562;106;26557;-79
2022/07/11 11:29:29;;;;;;;2.50;0.28;;;;;;;27.66;36.33;100061.17;1898617;103;26281;-83
2022/07/11 11:33:01;;;;;;;0.72;0.13;;;;;;;27.89;35.83;100064.02;1884360;103;25999;-84
2022/07/11 11:36:34;;;;;;;2.55;0.30;;;;;;;27.94;34.82;100053.90;1940953;100;25806;-85
2022/07/11 11:40:15;;;;;;;2.42;0.30;;;;;;;27.95;34.89;100052.50;1909317;103;25870;-87
2022/07/11 11:43:49;;;;;;;5.70;0.30;;;;;;;28.10;35.23;100049.45;1911219;102;25942;-85
2022/07/11 11:47:20;;;;;;;2.95;0.20;;;;;;;28.26;34.88;100048.14;1947557;98;25901;-82
2022/07/11 11:50:43;;;;;;;4.12;0.25;;;;;;;28.59;34.95;100044.58;2066344;95;25781;-85
2022/07/11 11:54:27;;;;;;;0.20;0.20;;;;;;;28.98;35.43;100034.70;2071098;91;25715;-83
2022/07/11 11:57:49;;;;;;;0.20;0.17;;;;;;;29.24;34.15;100029.17;2032011;95;26192;-82
2022/07/11 12:01:13;;;;;;;0.20;0.20;;;;;;;29.43;33.72;100032.98;2036811;96;26024;-83
2022/07/11 12:04:36;;;;;;;0.33;0.20;;;;;;;29.55;33.04;100035.39;2021507;96;25825;-83
2022/07/11 12:07:57;;;;;;;3.00;0.23;;;;;;;29.72;33.06;100037.94;2016077;98;25966;-79
2022/07/11 12:11:24;;;;;;;0.23;0.20;;;;;;;29.99;32.36;100040.73;2064698;94;25825;-82
2022/07/11 12:15:00;;;;;;;0.23;0.20;;;;;;;30.12;32.25;100036.80;2082986;94;25994;-83
2022/07/11 12:19:03;;;;;;;0.42;0.20;;;;;;;30.34;31.85;100041.70;2051317;95;25717;-82
2022/07/11 12:22:55;;;;;;;0.47;0.20;;;;;;;30.57;31.29;100038.88;2095774;93;25701;-82
2022/07/11 12:26:27;;;;;;;2.08;0.20;;;;;;;30.81;30.52;100048.55;2088627;93;25809;-81
2022/07/11 12:30:03;;;;;;;2.62;0.40;;;;;;;30.65;30.40;100068.00;2022845;97;26088;-84
2022/07/11 12:33:25;;;;;;;3.08;0.40;;;;;;;30.05;30.56;100083.86;2029083;97;26023;-82
2022/07/11 12:37:12;;;;;;;0.30;0.23;;;;;;;29.46;31.19;100101.73;2083189;93;26042;-79
2022/07/11 12:41:09;;;;;;;0.60;0.20;;;;;;;29.00;31.75;100106.64;2108942;93;25711;-75
2022/07/11 12:49:01;;;;;;;1.15;0.37;;;;;;;27.82;33.16;100113.03;1968377;100;25801;-75
2022/07/11 12:52:37;;;;;;;0.57;0.30;;;;;;;27.07;34.29;100106.06;1970064;98;25772;-75
2022/07/11 12:56:33;;;;;;;0.88;0.42;;;;;;;26.35;35.53;100104.95;2004851;97;25768;-75
2022/07/11 13:03:49;;;;;;;0.85;0.30;;;;;;;25.23;37.96;100113.41;1972364;100;25850;-74
2022/07/11 13:11:58;;;;;;;;;;;;;;;;;;;;;
2022/07/11 13:15:53;;;;;;;6.10;0.57;;;;;;;23.78;40.27;100103.32;1883264;103;26690;-80
2022/07/11 13:19:31;;;;;;;4.33;0.45;;;;;;;23.34;41.10;100102.55;1934267;99;25930;-80
2022/07/11 13:23:37;;;;;;;3.08;0.40;;;;;;;22.89;42.21;100099.58;1927225;102;26271;-74
2022/07/11 13:27:45;;;;;;;0.72;0.40;;;;;;;22.55;42.90;100099.75;1882882;103;26175;-75
2022/07/11 13:35:14;;;;;;;1.25;0.78;;;;;;;22.31;43.54;100102.69;1823626;107;25882;-76
2022/07/11 13:38:40;;;;;;;1.82;0.40;;;;;;;22.08;43.99;100096.67;1825746;106;26567;-81
2022/07/11 13:42:06;;;;;;;0.93;0.50;;;;;;;21.79;44.22;100102.30;1818252;105;25925;-75
2022/07/11 13:45:39;;;;;;;9.43;0.55;;;;;;;21.83;44.81;100105.74;1818250;108;25909;-76
2022/07/11 13:53:13;;;;;;;0.90;0.37;;;;;;;21.79;45.21;100093.48;1762327;111;26666;-75
2022/07/11 13:56:54;;;;;;;3.47;0.65;;;;;;;21.78;45.29;100084.65;1744607;111;25896;-80
2022/07/11 14:00:28;;;;;;;2.25;0.30;;;;;;;21.85;45.58;100086.68;1797459;106;25757;-82
2022/07/11 14:03:52;;;;;;;1.00;0.40;;;;;;;21.78;45.66;100081.13;1802226;108;26112;-77
2022/07/11 14:07:13;;;;;;;3.45;0.40;;;;;;;21.76;46.01;100093.55;1802070;108;31197;-74
2022/07/11 14:10:34;;;;;;;2.42;0.60;;;;;;;21.91;46.25;100088.72;1815463;106;25850;-76
2022/07/11 14:14:00;;;;;;;5.67;0.40;;;;;;;22.03;46.44;100097.23;1846201;105;30286;-77
2022/07/11 14:17:21;;;;;;;2.77;0.40;;;;;;;22.03;46.62;100094.13;1863956;104;25945;-81
2022/07/11 14:20:50;;;;;;;0.75;0.47;;;;;;;22.05;46.41;100103.39;1995017;92;25940;-75
2022/07/11 14:24:11;;;;;;;0.80;0.40;;;;;;;22.18;46.59;100101.30;2123546;91;25809;-78
2022/07/11 14:27:39;;;;;;;3.08;0.40;;;;;;;22.28;46.60;100091.69;2124141;93;25380;-80
2022/07/11 14:31:07;;;;;;;1.67;0.47;;;;;;;22.34;46.42;100089.28;2120645;91;25771;-82
2022/07/11 14:34:37;;;;;;;5.10;0.53;;;;;;;22.51;46.36;100092.34;2124650;91;25731;-82
2022/07/11 14:38:05;;;;;;;1.20;0.50;;;;;;;22.63;46.02;100094.60;2124692;91;25749;-81
2022/07/11 14:41:26;;;;;;;0.98;0.68;;;;;;;22.67;45.62;100091.86;2124486;91;25786;-79
2022/07/11 14:44:51;;;;;;;0.95;0.62;;;;;;;22.56;45.15;100092.19;2124612;93;25771;-80
2022/07/11 14:48:10;;;;;;;0.37;0.23;;;;;;;22.48;44.95;100087.12;2124185;93;25694;-80
2022/07/11 14:51:42;;;;;;;3.45;0.30;;;;;;;22.56;44.91;100093.52;2129817;90;25754;-82
2022/07/11 14:55:11;;;;;;;2.62;0.37;;;;;;;22.67;44.73;100097.17;2198457;90;25772;-82
2022/07/11 14:58:38;;;;;;;0.47;0.30;;;;;;;22.76;44.56;100096.89;2217538;87;25701;-82
2022/07/11 15:02:08;;;;;;;0.85;0.45;;;;;;;22.86;44.44;100097.88;2275127;87;25647;-80
2022/07/11 15:12:42;;;;;;;1.02;0.47;;;;;;;23.09;44.22;100087.02;2294369;84;25448;-82
2022/07/11 15:16:06;;;;;;;1.92;0.50;;;;;;;23.20;44.13;100087.52;2309340;85;25670;-80
2022/07/11 15:19:29;;;;;;;0.65;0.42;;;;;;;23.29;44.09;100086.36;2307730;85;25629;-81
2022/07/11 15:22:55;;;;;;;0.70;0.25;;;;;;;23.41;43.99;100087.26;2309053;85;25726;-81
2022/07/11 15:26:18;;;;;;;0.30;0.20;;;;;;;23.51;43.86;100090.02;2308418;85;25671;-82
2022/07/11 15:29:39;;;;;;;0.30;0.30;;;;;;;23.63;43.71;100090.53;2308889;85;25635;-82
2022/07/11 15:33:09;;;;;;;0.20;0.20;;;;;;;23.68;43.53;100089.46;2308934;85;25750;-82
2022/07/11 15:36:40;;;;;;;0.30;0.25;;;;;;;23.69;43.24;100087.23;2308864;84;25662;-82
2022/07/11 15:40:00;;;;;;;0.20;0.20;;;;;;;23.78;42.76;100097.99;2308273;85;25288;-80
2022/07/11 15:43:48;;;;;;;0.30;0.30;;;;;;;23.78;42.45;100096.20;2308933;85;25696;-82
2022/07/11 15:47:47;;;;;;;0.78;0.30;;;;;;;23.83;42.01;100097.39;2306192;85;25707;-80
2022/07/11 15:51:26;;;;;;;0.40;0.40;;;;;;;23.72;41.69;100100.41;2304980;85;25686;-80
2022/07/11 15:54:59;;;;;;;0.20;0.20;;;;;;;23.64;41.51;100100.24;2283019;85;25625;-81
2022/07/11 15:58:21;;;;;;;0.33;0.28;;;;;;;23.51;41.45;100095.33;2306994;84;25617;-78
2022/07/11 16:02:11;;;;;;;0.20;0.20;;;;;;;23.54;41.46;100116.52;2308523;85;25674;-81
2022/07/11 16:09:56;;;;;;;0.40;0.20;;;;;;;23.30;41.76;100123.53;2284381;86;25784;-81
2022/07/11 16:13:41;;;;;;;0.60;0.60;;;;;;;23.22;42.03;100116.71;2298850;85;26053;-81
2022/07/11 16:17:15;;;;;;;1.32;0.50;;;;;;;23.14;42.27;100130.73;2292489;86;25691;-80
2022/07/11 16:20:59;;;;;;;2.45;0.62;;;;;;;23.10;42.51;100137.47;2296616;86;25748;-80
2022/07/11 16:24:31;;;;;;;0.60;0.30;;;;;;;23.05;42.70;100139.86;2298045;86;25986;-82
2022/07/11 16:27:53;;;;;;;2.37;0.50;;;;;;;22.99;42.97;100133.43;2216571;88;25744;-82
2022/07/11 16:31:40;;;;;;;2.47;0.60;;;;;;;22.98;43.29;100142.30;2217125;88;30991;-80
2022/07/11 16:35:25;;;;;;;;;;;;;;;;;;;;;
2022/07/11 16:47:03;;;;;;;1.30;1.10;;;;;;;22.77;44.63;100136.70;2182403;90;25667;-79
2022/07/11 16:54:33;;;;;;;1.82;0.40;;;;;;;22.52;44.86;100127.28;2110034;92;26320;-81
2022/07/11 16:58:27;;;;;;;2.15;0.57;;;;;;;22.40;45.43;100130.28;2104791;92;25971;-80
2022/07/11 17:02:17;;;;;;;5.95;1.55;;;;;;;22.41;45.72;100134.70;2059825;94;25837;-83
2022/07/11 17:09:24;;;;;;;;;;;;;;;;;;;;;
2022/07/11 17:12:47;;;;;;;;;;;;;;;22.23;46.05;100132.55;1810715;107;25953;-80
2022/07/11 17:20:21;;;;;;;3.98;2.12;;;;;;;22.12;46.56;100131.04;1775757;111;25836;-75
2022/07/11 17:23:48;;;;;;;5.87;1.20;;;;;;;22.02;46.74;100129.55;1776627;107;25962;-80
2022/07/11 17:27:25;;;;;;;14.00;1.75;;;;;;;21.95;46.94;100131.09;1812628;108;25959;-75
2022/07/11 17:31:17;;;;;;;5.00;1.70;;;;;;;21.91;47.26;100135.63;1825742;105;25916;-81
2022/07/11 17:35:21;;;;;;;;;;;;;;;;;;;;;
2022/07/11 17:38:51;;;;;;;5.00;1.85;;;;;;;21.85;47.27;100135.78;1820195;107;26427;-86
2022/07/11 17:46:25;;;;;;;;;;;;;;;;;;;;;
2022/07/11 17:49:52;;;;;;;1.62;1.00;;;;;;;21.60;47.83;100140.41;1786969;107;26040;-87
2022/07/11 17:54:04;;;;;;;;;;;;;;;;;;;;;
2022/07/11 18:01:26;;;;;;;;;;;;;;;;;;;;;
2022/07/11 18:12:27;;;;;;;;;;;;;;;;;;;;;
2022/07/11 18:16:03;;;;;;;1.70;0.70;;;;;;;20.64;49.97;100134.69;1805474;106;25977;-85
2022/07/11 18:19:32;;;;;;;3.33;0.68;;;;;;;20.59;50.19;100137.91;1848860;102;25952;-82
2022/07/11 18:27:12;;;;;;;1.57;0.70;;;;;;;20.42;50.72;100140.87;1882771;98;25853;-86
2022/07/11 18:30:49;;;;;;;3.55;0.72;;;;;;;20.36;50.95;100149.80;2031851;92;26131;-85
2022/07/11 18:34:44;;;;;;;3.52;0.60;;;;;;;20.41;50.98;100154.99;2114894;89;25814;-85
2022/07/11 18:42:49;;;;;;;;;;;;;;;;;;;;;
2022/07/11 18:50:16;;;;;;;;;;;;;;;;;;;;;
2022/07/11 18:53:52;;;;;;;0.93;0.60;;;;;;;20.29;50.82;100151.70;2073514;91;26467;-82
2022/07/11 18:57:32;;;;;;;;;;;;;;;;;;;;;
2022/07/11 19:04:35;;;;;;;;;;;;;;;;;;;;;
2022/07/11 19:08:37;;;;;;;1.52;0.50;;;;;;;20.39;50.41;100154.17;2126773;91;26205;-88
2022/07/11 19:23:34;;;;;;;0.78;0.50;;;;;;;19.83;50.54;100150.82;2053039;92;26423;-84
2022/07/11 19:26:53;;;;;;;0.50;0.40;;;;;;;19.67;50.67;100156.82;2025771;94;25387;-88
2022/07/11 19:30:49;;;;;;;;;;;;;;;;;;;;;
2022/07/11 19:34:33;;;;;;;1.62;0.60;;;;;;;19.59;50.95;100157.80;2074495;92;25559;-86
2022/07/11 19:41:55;;;;;;;1.42;0.80;;;;;;;19.39;51.37;100164.31;1957583;100;25784;-86
2022/07/11 19:45:40;;;;;;;1.75;0.82;;;;;;;19.33;51.46;100169.23;1988170;99;25852;-87
2022/07/11 19:49:08;;;;;;;2.37;0.57;;;;;;;19.24;51.44;100174.23;1969084;98;25968;-85
2022/07/11 19:53:14;;;;;;;;;;;;;;;;;;;;;
2022/07/11 20:01:02;;;;;;;0.50;0.50;;;;;;;18.68;52.38;100167.94;1856838;102;25879;-80
2022/07/11 20:04:53;;;;;;;4.90;0.60;;;;;;;18.62;52.70;100162.73;1774358;109;25899;-82
2022/07/11 20:08:41;;;;;;;1.20;0.60;;;;;;;18.64;52.97;100169.75;1759734;110;26055;-82
2022/07/11 20:11:57;;;;;;;1.03;0.60;;;;;;;18.61;53.04;100174.20;1729964;112;26043;-82
2022/07/11 20:15:44;;;;;;;1.20;0.62;;;;;;;18.52;53.22;100169.89;1732439;111;25866;-81
2022/07/11 20:19:19;;;;;;;0.98;0.40;;;;;;;18.52;53.40;100163.74;1724046;113;25994;-79
2022/07/11 20:23:02;;;;;;;;;;;;;;;;;;;;;
2022/07/11 20:26:54;;;;;;;1.15;0.50;;;;;;;18.40;53.68;100171.38;1752777;110;26496;-82
2022/07/11 20:30:36;;;;;;;4.87;0.60;;;;;;;18.37;53.67;100171.41;1723415;109;26547;-82